Arlington, VA

7:50 AM EST on February 28, 2015 (GMT -0500)
Davison Army Air Field | Change Station
CLOSE
Current Station
Airport
Location: Fort Belvoir,
Elevation: 69 ft
Nearby Weather Stations

Elev 69 ft 38.72 °N, 77.18 °W | Updated 52 minutes ago

Partly Cloudy
Partly Cloudy
15 °F
Feels Like 15 °F
N
1
Wind Variable Wind from North

Today
High -- | Low -- °F
--% Chance of Precip.
Yesterday
High -- | Low -- °F
Precip. -- in
6:42 AM 5:59 PM
Waxing Gibbous, 77% visible
Pressure 30.83 in
Visibility 10.0 miles
Clouds Clear
Dew Point 4 °F
Humidity 61%
Rainfall 0.00 in
Snow Depth Not available.
UV 0 out of 12
Pollen 2.70 out of 12
Air Quality Not available.
Flu Activity Not available.
METAR KDAA 281158Z AUTO 01001KT 10SM CLR M09/M16 A3081 RMK AO2 SLP438 T10951157 11054 21096 51023

More Conditions Fewer Conditions

Pressure 30.83 in
Visibility 10.0 miles
Clouds Clear
Dew Point 4 °F
Humidity 61%
Rainfall 0.00 in
Snow Depth Not available.
UV 0 out of 12
Pollen 2.70 out of 12
Air Quality Not available.
Flu Activity Not available.
METAR KDAA 281158Z AUTO 01001KT 10SM CLR M09/M16 A3081 RMK AO2 SLP438 T10951157 11054 21096 51023

More Conditions Fewer Conditions

10-Day Weather Forecast

Almanac

Astronomy

Feb. 28, 2015 Rise Set
Actual Time
Civil Twilight
Nautical Twilight
Astronomical Twilight
Moon
Length of Visible Light
Length of Day
Tomorrow will be .
, % of the Moon is Illuminated

Today's Extremes

State Highs State Lows

Community

WunderPhotos

Upload Photos

1,801,000 photos uploaded!

WunderBlogs® & News

Nearby

Air Quality

  Air Quality AQ Index Pollutant
Not available.

Snow Depth

Station Depth Elevation

Earthquake Activity

City Distance Mag. Time & Date
Minimum magnitude displayed is 2.5.

Coastal Water Temperatures

Place Temperature

Nearby Weather Stations